sensor_id;sensor_type;location;lat;lon;timestamp;P1;durP1;ratioP1;P2;durP2;ratioP2
44434;SDS011;30138;20.964;105.830;2023-03-07T00:03:00;77.18;;;50.20;;
44434;SDS011;30138;20.964;105.830;2023-03-07T00:08:13;78.85;;;51.72;;
44434;SDS011;30138;20.964;105.830;2023-03-07T00:13:21;80.60;;;51.70;;
44434;SDS011;30138;20.964;105.830;2023-03-07T00:18:29;106.00;;;60.15;;
44434;SDS011;30138;20.964;105.830;2023-03-07T00:23:42;110.75;;;61.40;;
44434;SDS011;30138;20.964;105.830;2023-03-07T00:28:50;115.57;;;64.83;;
44434;SDS011;30138;20.964;105.830;2023-03-07T00:34:00;120.72;;;64.50;;
44434;SDS011;30138;20.964;105.830;2023-03-07T00:39:10;110.50;;;63.97;;
44434;SDS011;30138;20.964;105.830;2023-03-07T00:44:18;125.45;;;65.85;;
44434;SDS011;30138;20.964;105.830;2023-03-07T00:49:28;123.47;;;68.88;;
44434;SDS011;30138;20.964;105.830;2023-03-07T00:54:38;119.82;;;67.40;;
44434;SDS011;30138;20.964;105.830;2023-03-07T00:59:46;120.07;;;67.25;;
44434;SDS011;30138;20.964;105.830;2023-03-07T01:04:57;117.75;;;67.22;;
44434;SDS011;30138;20.964;105.830;2023-03-07T01:10:07;118.15;;;68.53;;
44434;SDS011;30138;20.964;105.830;2023-03-07T01:15:15;119.43;;;67.88;;
44434;SDS011;30138;20.964;105.830;2023-03-07T01:20:23;121.28;;;65.90;;
44434;SDS011;30138;20.964;105.830;2023-03-07T01:25:33;122.70;;;64.53;;
44434;SDS011;30138;20.964;105.830;2023-03-07T01:30:44;114.70;;;66.85;;
44434;SDS011;30138;20.964;105.830;2023-03-07T01:36:01;125.57;;;66.15;;
44434;SDS011;30138;20.964;105.830;2023-03-07T01:41:12;121.25;;;68.47;;
44434;SDS011;30138;20.964;105.830;2023-03-07T01:46:24;128.18;;;68.25;;
44434;SDS011;30138;20.964;105.830;2023-03-07T01:51:51;115.78;;;65.45;;
44434;SDS011;30138;20.964;105.830;2023-03-07T01:57:09;118.85;;;65.97;;
44434;SDS011;30138;20.964;105.830;2023-03-07T02:02:17;118.07;;;63.40;;
44434;SDS011;30138;20.964;105.830;2023-03-07T02:07:27;109.22;;;59.28;;
44434;SDS011;30138;20.964;105.830;2023-03-07T02:12:43;113.22;;;61.53;;
44434;SDS011;30138;20.964;105.830;2023-03-07T02:17:52;112.53;;;61.80;;
44434;SDS011;30138;20.964;105.830;2023-03-07T02:23:02;109.95;;;62.13;;
44434;SDS011;30138;20.964;105.830;2023-03-07T02:28:17;106.45;;;61.75;;
44434;SDS011;30138;20.964;105.830;2023-03-07T02:33:25;108.13;;;59.22;;
44434;SDS011;30138;20.964;105.830;2023-03-07T02:38:37;104.53;;;56.97;;
44434;SDS011;30138;20.964;105.830;2023-03-07T02:43:50;101.18;;;54.88;;
44434;SDS011;30138;20.964;105.830;2023-03-07T02:48:59;99.05;;;56.63;;
44434;SDS011;30138;20.964;105.830;2023-03-07T02:54:07;102.00;;;55.17;;
44434;SDS011;30138;20.964;105.830;2023-03-07T02:59:17;99.00;;;54.90;;
44434;SDS011;30138;20.964;105.830;2023-03-07T03:04:25;92.32;;;51.22;;
44434;SDS011;30138;20.964;105.830;2023-03-07T03:09:33;97.28;;;53.03;;
44434;SDS011;30138;20.964;105.830;2023-03-07T03:14:43;93.63;;;51.67;;
44434;SDS011;30138;20.964;105.830;2023-03-07T03:19:51;94.97;;;49.80;;
44434;SDS011;30138;20.964;105.830;2023-03-07T03:24:59;92.47;;;47.45;;
44434;SDS011;30138;20.964;105.830;2023-03-07T03:30:11;89.10;;;46.63;;
44434;SDS011;30138;20.964;105.830;2023-03-07T03:35:20;85.60;;;46.20;;
44434;SDS011;30138;20.964;105.830;2023-03-07T03:40:30;94.85;;;47.92;;
44434;SDS011;30138;20.964;105.830;2023-03-07T03:45:40;91.70;;;47.15;;
44434;SDS011;30138;20.964;105.830;2023-03-07T03:50:48;103.32;;;45.97;;
44434;SDS011;30138;20.964;105.830;2023-03-07T03:56:06;89.22;;;46.65;;
44434;SDS011;30138;20.964;105.830;2023-03-07T04:01:18;96.90;;;49.70;;
44434;SDS011;30138;20.964;105.830;2023-03-07T04:06:29;99.53;;;53.75;;
44434;SDS011;30138;20.964;105.830;2023-03-07T04:11:39;129.57;;;61.07;;
44434;SDS011;30138;20.964;105.830;2023-03-07T04:16:50;121.13;;;63.00;;
44434;SDS011;30138;20.964;105.830;2023-03-07T04:21:59;118.03;;;67.82;;
44434;SDS011;30138;20.964;105.830;2023-03-07T04:27:13;130.00;;;69.50;;
44434;SDS011;30138;20.964;105.830;2023-03-07T04:32:24;117.05;;;69.18;;
44434;SDS011;30138;20.964;105.830;2023-03-07T04:42:39;116.65;;;68.57;;
44434;SDS011;30138;20.964;105.830;2023-03-07T04:47:50;115.28;;;68.07;;
44434;SDS011;30138;20.964;105.830;2023-03-07T04:52:57;117.13;;;68.25;;
44434;SDS011;30138;20.964;105.830;2023-03-07T04:58:05;111.80;;;65.65;;
44434;SDS011;30138;20.964;105.830;2023-03-07T05:03:17;119.18;;;67.75;;
44434;SDS011;30138;20.964;105.830;2023-03-07T05:08:25;116.72;;;68.72;;
44434;SDS011;30138;20.964;105.830;2023-03-07T05:13:33;107.60;;;63.40;;
44434;SDS011;30138;20.964;105.830;2023-03-07T05:18:43;99.07;;;61.53;;
44434;SDS011;30138;20.964;105.830;2023-03-07T05:23:51;105.72;;;60.50;;
44434;SDS011;30138;20.964;105.830;2023-03-07T05:28:59;110.43;;;62.13;;
44434;SDS011;30138;20.964;105.830;2023-03-07T05:34:11;101.70;;;61.33;;
44434;SDS011;30138;20.964;105.830;2023-03-07T05:39:19;105.45;;;61.33;;
44434;SDS011;30138;20.964;105.830;2023-03-07T05:44:28;108.15;;;61.80;;
44434;SDS011;30138;20.964;105.830;2023-03-07T05:49:39;103.28;;;61.42;;
44434;SDS011;30138;20.964;105.830;2023-03-07T05:54:49;106.13;;;60.10;;
44434;SDS011;30138;20.964;105.830;2023-03-07T05:59:57;105.90;;;59.90;;
44434;SDS011;30138;20.964;105.830;2023-03-07T06:05:17;92.80;;;57.88;;
44434;SDS011;30138;20.964;105.830;2023-03-07T06:10:25;101.82;;;59.45;;
44434;SDS011;30138;20.964;105.830;2023-03-07T06:15:34;109.03;;;57.38;;
44434;SDS011;30138;20.964;105.830;2023-03-07T06:20:52;103.88;;;56.42;;
44434;SDS011;30138;20.964;105.830;2023-03-07T06:26:04;104.63;;;58.33;;
44434;SDS011;30138;20.964;105.830;2023-03-07T06:31:14;101.55;;;59.22;;
44434;SDS011;30138;20.964;105.830;2023-03-07T06:36:27;108.70;;;62.53;;
44434;SDS011;30138;20.964;105.830;2023-03-07T06:41:36;111.82;;;64.35;;
44434;SDS011;30138;20.964;105.830;2023-03-07T06:46:45;107.93;;;61.25;;
44434;SDS011;30138;20.964;105.830;2023-03-07T06:51:57;106.07;;;59.58;;
44434;SDS011;30138;20.964;105.830;2023-03-07T06:57:05;111.28;;;59.10;;
44434;SDS011;30138;20.964;105.830;2023-03-07T07:02:14;102.18;;;58.30;;
44434;SDS011;30138;20.964;105.830;2023-03-07T07:07:23;93.55;;;59.47;;
44434;SDS011;30138;20.964;105.830;2023-03-07T07:12:32;107.07;;;58.97;;
44434;SDS011;30138;20.964;105.830;2023-03-07T07:17:40;95.68;;;55.10;;
44434;SDS011;30138;20.964;105.830;2023-03-07T07:22:50;94.28;;;56.95;;
44434;SDS011;30138;20.964;105.830;2023-03-07T07:27:59;90.07;;;54.05;;
44434;SDS011;30138;20.964;105.830;2023-03-07T07:33:07;82.35;;;51.63;;
44434;SDS011;30138;20.964;105.830;2023-03-07T07:38:18;88.15;;;52.55;;
44434;SDS011;30138;20.964;105.830;2023-03-07T07:43:25;90.82;;;53.10;;
44434;SDS011;30138;20.964;105.830;2023-03-07T07:49:00;95.03;;;52.78;;
44434;SDS011;30138;20.964;105.830;2023-03-07T07:54:09;90.80;;;53.05;;
44434;SDS011;30138;20.964;105.830;2023-03-07T07:59:17;103.25;;;53.75;;
44434;SDS011;30138;20.964;105.830;2023-03-07T08:04:26;93.30;;;53.03;;
44434;SDS011;30138;20.964;105.830;2023-03-07T08:09:37;106.88;;;55.40;;
44434;SDS011;30138;20.964;105.830;2023-03-07T08:14:45;102.53;;;54.97;;
44434;SDS011;30138;20.964;105.830;2023-03-07T08:19:52;90.20;;;54.13;;
44434;SDS011;30138;20.964;105.830;2023-03-07T08:25:04;93.10;;;54.22;;
44434;SDS011;30138;20.964;105.830;2023-03-07T08:30:14;102.50;;;55.20;;
44434;SDS011;30138;20.964;105.830;2023-03-07T08:35:24;83.97;;;53.80;;
44434;SDS011;30138;20.964;105.830;2023-03-07T08:40:35;90.53;;;53.00;;
44434;SDS011;30138;20.964;105.830;2023-03-07T08:45:44;97.55;;;56.63;;
44434;SDS011;30138;20.964;105.830;2023-03-07T08:50:54;103.83;;;57.23;;
44434;SDS011;30138;20.964;105.830;2023-03-07T08:56:07;101.65;;;56.15;;
44434;SDS011;30138;20.964;105.830;2023-03-07T09:01:16;102.25;;;57.45;;
44434;SDS011;30138;20.964;105.830;2023-03-07T09:06:23;98.45;;;57.33;;
44434;SDS011;30138;20.964;105.830;2023-03-07T09:11:33;109.93;;;57.22;;
44434;SDS011;30138;20.964;105.830;2023-03-07T09:16:42;98.95;;;55.88;;
44434;SDS011;30138;20.964;105.830;2023-03-07T09:21:51;104.90;;;59.08;;
44434;SDS011;30138;20.964;105.830;2023-03-07T09:27:01;110.32;;;62.55;;
44434;SDS011;30138;20.964;105.830;2023-03-07T09:32:09;116.50;;;62.45;;
44434;SDS011;30138;20.964;105.830;2023-03-07T09:37:17;111.75;;;64.70;;
44434;SDS011;30138;20.964;105.830;2023-03-07T09:42:29;111.35;;;62.70;;
44434;SDS011;30138;20.964;105.830;2023-03-07T09:53:42;110.05;;;65.32;;
44434;SDS011;30138;20.964;105.830;2023-03-07T09:58:56;118.10;;;65.15;;
44434;SDS011;30138;20.964;105.830;2023-03-07T10:04:12;112.25;;;65.63;;
44434;SDS011;30138;20.964;105.830;2023-03-07T10:09:27;117.35;;;66.88;;
44434;SDS011;30138;20.964;105.830;2023-03-07T10:14:40;111.55;;;65.90;;
44434;SDS011;30138;20.964;105.830;2023-03-07T10:20:11;105.75;;;65.30;;
44434;SDS011;30138;20.964;105.830;2023-03-07T10:25:26;113.32;;;67.00;;
44434;SDS011;30138;20.964;105.830;2023-03-07T10:30:37;112.03;;;66.93;;
44434;SDS011;30138;20.964;105.830;2023-03-07T10:35:47;122.32;;;70.18;;
44434;SDS011;30138;20.964;105.830;2023-03-07T10:41:00;119.07;;;67.05;;
44434;SDS011;30138;20.964;105.830;2023-03-07T10:46:17;120.97;;;70.32;;
44434;SDS011;30138;20.964;105.830;2023-03-07T10:51:30;117.45;;;71.88;;
44434;SDS011;30138;20.964;105.830;2023-03-07T10:57:08;228.10;;;112.38;;
44434;SDS011;30138;20.964;105.830;2023-03-07T11:07:47;309.90;;;140.15;;
44434;SDS011;30138;20.964;105.830;2023-03-07T11:12:55;283.98;;;135.50;;
44434;SDS011;30138;20.964;105.830;2023-03-07T11:18:09;264.92;;;129.18;;
44434;SDS011;30138;20.964;105.830;2023-03-07T11:23:33;332.88;;;154.00;;
44434;SDS011;30138;20.964;105.830;2023-03-07T11:28:41;463.00;;;221.43;;
44434;SDS011;30138;20.964;105.830;2023-03-07T11:39:42;415.48;;;196.55;;
44434;SDS011;30138;20.964;105.830;2023-03-07T11:45:02;398.25;;;179.18;;
44434;SDS011;30138;20.964;105.830;2023-03-07T11:50:30;389.55;;;177.38;;
44434;SDS011;30138;20.964;105.830;2023-03-07T11:55:40;409.93;;;189.33;;
44434;SDS011;30138;20.964;105.830;2023-03-07T12:01:01;390.33;;;180.73;;
44434;SDS011;30138;20.964;105.830;2023-03-07T12:06:21;352.83;;;160.77;;
44434;SDS011;30138;20.964;105.830;2023-03-07T12:17:00;304.95;;;146.82;;
44434;SDS011;30138;20.964;105.830;2023-03-07T12:22:25;283.43;;;132.83;;
44434;SDS011;30138;20.964;105.830;2023-03-07T12:27:34;250.20;;;121.97;;
44434;SDS011;30138;20.964;105.830;2023-03-07T12:32:45;226.98;;;111.32;;
44434;SDS011;30138;20.964;105.830;2023-03-07T12:37:57;221.82;;;107.55;;
44434;SDS011;30138;20.964;105.830;2023-03-07T12:43:13;213.50;;;105.13;;
44434;SDS011;30138;20.964;105.830;2023-03-07T12:48:28;189.90;;;90.65;;
44434;SDS011;30138;20.964;105.830;2023-03-07T12:53:48;167.80;;;79.85;;
44434;SDS011;30138;20.964;105.830;2023-03-07T12:59:06;149.65;;;76.60;;
44434;SDS011;30138;20.964;105.830;2023-03-07T13:04:20;156.80;;;77.57;;
44434;SDS011;30138;20.964;105.830;2023-03-07T13:09:38;154.25;;;74.72;;
44434;SDS011;30138;20.964;105.830;2023-03-07T13:14:47;147.25;;;75.78;;
44434;SDS011;30138;20.964;105.830;2023-03-07T13:19:58;155.32;;;76.20;;
44434;SDS011;30138;20.964;105.830;2023-03-07T13:31:21;128.55;;;67.22;;
44434;SDS011;30138;20.964;105.830;2023-03-07T13:36:47;128.73;;;67.13;;
44434;SDS011;30138;20.964;105.830;2023-03-07T13:48:09;136.30;;;72.20;;
44434;SDS011;30138;20.964;105.830;2023-03-07T13:53:41;129.20;;;67.53;;
44434;SDS011;30138;20.964;105.830;2023-03-07T13:58:56;145.55;;;70.63;;
44434;SDS011;30138;20.964;105.830;2023-03-07T14:04:10;136.98;;;69.22;;
44434;SDS011;30138;20.964;105.830;2023-03-07T14:09:38;137.95;;;63.67;;
44434;SDS011;30138;20.964;105.830;2023-03-07T14:20:44;117.10;;;63.30;;
44434;SDS011;30138;20.964;105.830;2023-03-07T14:26:08;116.18;;;63.00;;
44434;SDS011;30138;20.964;105.830;2023-03-07T14:31:24;117.45;;;62.60;;
44434;SDS011;30138;20.964;105.830;2023-03-07T14:36:37;119.70;;;59.72;;
44434;SDS011;30138;20.964;105.830;2023-03-07T14:41:56;116.15;;;61.47;;
44434;SDS011;30138;20.964;105.830;2023-03-07T14:47:33;106.28;;;60.03;;
44434;SDS011;30138;20.964;105.830;2023-03-07T14:52:56;118.55;;;61.63;;
44434;SDS011;30138;20.964;105.830;2023-03-07T14:58:15;112.20;;;62.00;;
44434;SDS011;30138;20.964;105.830;2023-03-07T15:03:31;106.82;;;61.28;;
44434;SDS011;30138;20.964;105.830;2023-03-07T15:08:41;110.25;;;61.17;;
44434;SDS011;30138;20.964;105.830;2023-03-07T15:13:50;107.18;;;59.67;;
44434;SDS011;30138;20.964;105.830;2023-03-07T15:19:03;109.23;;;60.87;;
44434;SDS011;30138;20.964;105.830;2023-03-07T15:24:18;104.47;;;61.15;;
44434;SDS011;30138;20.964;105.830;2023-03-07T15:29:31;103.97;;;59.78;;
44434;SDS011;30138;20.964;105.830;2023-03-07T15:34:42;101.15;;;60.35;;
44434;SDS011;30138;20.964;105.830;2023-03-07T15:39:54;101.78;;;61.28;;
44434;SDS011;30138;20.964;105.830;2023-03-07T15:45:02;108.10;;;59.22;;
44434;SDS011;30138;20.964;105.830;2023-03-07T15:50:29;103.63;;;59.40;;
44434;SDS011;30138;20.964;105.830;2023-03-07T15:55:41;104.82;;;59.05;;
44434;SDS011;30138;20.964;105.830;2023-03-07T16:00:54;101.88;;;57.85;;
44434;SDS011;30138;20.964;105.830;2023-03-07T16:06:25;103.97;;;59.67;;
44434;SDS011;30138;20.964;105.830;2023-03-07T16:11:40;104.20;;;56.75;;
44434;SDS011;30138;20.964;105.830;2023-03-07T16:16:52;105.10;;;54.95;;
44434;SDS011;30138;20.964;105.830;2023-03-07T16:22:04;107.78;;;56.40;;
44434;SDS011;30138;20.964;105.830;2023-03-07T16:27:16;101.15;;;55.75;;
44434;SDS011;30138;20.964;105.830;2023-03-07T16:32:26;107.38;;;57.30;;
44434;SDS011;30138;20.964;105.830;2023-03-07T16:37:39;107.03;;;57.42;;
44434;SDS011;30138;20.964;105.830;2023-03-07T16:43:22;112.57;;;57.47;;
44434;SDS011;30138;20.964;105.830;2023-03-07T16:48:42;122.38;;;62.33;;
44434;SDS011;30138;20.964;105.830;2023-03-07T16:53:55;119.72;;;60.65;;
44434;SDS011;30138;20.964;105.830;2023-03-07T16:59:04;123.18;;;64.45;;
44434;SDS011;30138;20.964;105.830;2023-03-07T17:04:13;116.13;;;66.95;;
44434;SDS011;30138;20.964;105.830;2023-03-07T17:09:23;135.55;;;68.47;;
44434;SDS011;30138;20.964;105.830;2023-03-07T17:14:31;123.18;;;64.93;;
44434;SDS011;30138;20.964;105.830;2023-03-07T17:19:43;117.10;;;64.07;;
44434;SDS011;30138;20.964;105.830;2023-03-07T17:24:54;125.65;;;64.18;;
44434;SDS011;30138;20.964;105.830;2023-03-07T17:30:06;114.82;;;62.80;;
44434;SDS011;30138;20.964;105.830;2023-03-07T17:35:21;116.53;;;61.50;;
44434;SDS011;30138;20.964;105.830;2023-03-07T17:40:34;115.03;;;62.60;;
44434;SDS011;30138;20.964;105.830;2023-03-07T17:45:42;103.68;;;60.22;;
44434;SDS011;30138;20.964;105.830;2023-03-07T17:50:49;117.22;;;61.33;;
44434;SDS011;30138;20.964;105.830;2023-03-07T17:56:06;117.30;;;59.85;;
44434;SDS011;30138;20.964;105.830;2023-03-07T18:01:15;115.82;;;60.13;;
44434;SDS011;30138;20.964;105.830;2023-03-07T18:06:23;116.25;;;58.92;;
44434;SDS011;30138;20.964;105.830;2023-03-07T18:11:37;113.78;;;58.65;;
44434;SDS011;30138;20.964;105.830;2023-03-07T18:16:44;118.13;;;58.97;;
44434;SDS011;30138;20.964;105.830;2023-03-07T18:21:52;104.88;;;56.35;;
44434;SDS011;30138;20.964;105.830;2023-03-07T18:27:01;105.95;;;55.35;;
44434;SDS011;30138;20.964;105.830;2023-03-07T18:32:10;104.22;;;56.08;;
44434;SDS011;30138;20.964;105.830;2023-03-07T18:37:17;115.28;;;58.25;;
44434;SDS011;30138;20.964;105.830;2023-03-07T18:42:27;115.53;;;56.15;;
44434;SDS011;30138;20.964;105.830;2023-03-07T18:47:34;119.45;;;58.83;;
44434;SDS011;30138;20.964;105.830;2023-03-07T18:52:42;112.10;;;60.65;;
44434;SDS011;30138;20.964;105.830;2023-03-07T18:57:51;125.65;;;62.42;;
44434;SDS011;30138;20.964;105.830;2023-03-07T19:02:59;114.07;;;59.63;;
44434;SDS011;30138;20.964;105.830;2023-03-07T19:08:07;119.05;;;60.13;;
44434;SDS011;30138;20.964;105.830;2023-03-07T19:13:16;108.13;;;58.10;;
44434;SDS011;30138;20.964;105.830;2023-03-07T19:18:24;115.72;;;58.22;;
44434;SDS011;30138;20.964;105.830;2023-03-07T19:23:31;101.82;;;56.15;;
44434;SDS011;30138;20.964;105.830;2023-03-07T19:28:43;117.72;;;56.63;;
44434;SDS011;30138;20.964;105.830;2023-03-07T19:33:52;111.38;;;57.08;;
44434;SDS011;30138;20.964;105.830;2023-03-07T19:39:01;105.10;;;54.78;;
44434;SDS011;30138;20.964;105.830;2023-03-07T19:44:12;104.30;;;54.42;;
44434;SDS011;30138;20.964;105.830;2023-03-07T19:49:20;96.72;;;52.45;;
44434;SDS011;30138;20.964;105.830;2023-03-07T19:54:28;101.47;;;52.97;;
44434;SDS011;30138;20.964;105.830;2023-03-07T19:59:39;103.15;;;52.13;;
44434;SDS011;30138;20.964;105.830;2023-03-07T20:04:48;105.75;;;51.97;;
44434;SDS011;30138;20.964;105.830;2023-03-07T20:09:56;98.53;;;50.40;;
44434;SDS011;30138;20.964;105.830;2023-03-07T20:15:06;100.35;;;50.88;;
44434;SDS011;30138;20.964;105.830;2023-03-07T20:20:15;104.95;;;50.30;;
44434;SDS011;30138;20.964;105.830;2023-03-07T20:25:26;100.78;;;50.67;;
44434;SDS011;30138;20.964;105.830;2023-03-07T20:35:43;100.93;;;51.53;;
44434;SDS011;30138;20.964;105.830;2023-03-07T20:40:58;103.40;;;54.40;;
44434;SDS011;30138;20.964;105.830;2023-03-07T20:46:09;105.15;;;54.83;;
44434;SDS011;30138;20.964;105.830;2023-03-07T20:51:18;105.35;;;54.45;;
44434;SDS011;30138;20.964;105.830;2023-03-07T20:56:28;101.53;;;54.75;;
44434;SDS011;30138;20.964;105.830;2023-03-07T21:01:41;106.50;;;54.97;;
44434;SDS011;30138;20.964;105.830;2023-03-07T21:06:48;109.47;;;56.00;;
44434;SDS011;30138;20.964;105.830;2023-03-07T21:11:57;106.10;;;55.30;;
44434;SDS011;30138;20.964;105.830;2023-03-07T21:17:07;105.88;;;54.85;;
44434;SDS011;30138;20.964;105.830;2023-03-07T21:22:15;109.28;;;53.88;;
44434;SDS011;30138;20.964;105.830;2023-03-07T21:27:23;97.85;;;53.13;;
44434;SDS011;30138;20.964;105.830;2023-03-07T21:32:35;111.22;;;53.75;;
44434;SDS011;30138;20.964;105.830;2023-03-07T21:44:09;110.80;;;55.33;;
44434;SDS011;30138;20.964;105.830;2023-03-07T21:49:19;105.50;;;54.33;;
44434;SDS011;30138;20.964;105.830;2023-03-07T21:54:27;105.85;;;53.65;;
44434;SDS011;30138;20.964;105.830;2023-03-07T22:05:55;98.90;;;54.45;;
44434;SDS011;30138;20.964;105.830;2023-03-07T22:11:08;93.72;;;52.17;;
44434;SDS011;30138;20.964;105.830;2023-03-07T22:16:18;91.15;;;52.88;;
44434;SDS011;30138;20.964;105.830;2023-03-07T22:21:28;87.13;;;52.28;;
44434;SDS011;30138;20.964;105.830;2023-03-07T22:26:36;99.95;;;53.42;;
44434;SDS011;30138;20.964;105.830;2023-03-07T22:31:44;86.40;;;52.75;;
44434;SDS011;30138;20.964;105.830;2023-03-07T22:36:53;92.97;;;54.17;;
44434;SDS011;30138;20.964;105.830;2023-03-07T22:42:01;93.15;;;55.05;;
44434;SDS011;30138;20.964;105.830;2023-03-07T22:47:09;91.95;;;53.92;;
44434;SDS011;30138;20.964;105.830;2023-03-07T22:52:19;86.30;;;53.25;;
44434;SDS011;30138;20.964;105.830;2023-03-07T22:57:26;91.18;;;56.13;;
44434;SDS011;30138;20.964;105.830;2023-03-07T23:02:35;89.00;;;55.75;;
44434;SDS011;30138;20.964;105.830;2023-03-07T23:07:46;88.53;;;53.90;;
44434;SDS011;30138;20.964;105.830;2023-03-07T23:12:53;87.43;;;53.20;;
44434;SDS011;30138;20.964;105.830;2023-03-07T23:18:02;94.88;;;54.72;;
44434;SDS011;30138;20.964;105.830;2023-03-07T23:23:12;86.32;;;54.47;;
44434;SDS011;30138;20.964;105.830;2023-03-07T23:28:20;81.97;;;52.60;;
44434;SDS011;30138;20.964;105.830;2023-03-07T23:33:29;77.57;;;52.75;;
44434;SDS011;30138;20.964;105.830;2023-03-07T23:38:39;81.68;;;52.42;;
44434;SDS011;30138;20.964;105.830;2023-03-07T23:43:49;84.13;;;54.97;;
44434;SDS011;30138;20.964;105.830;2023-03-07T23:48:59;88.05;;;53.47;;
44434;SDS011;30138;20.964;105.830;2023-03-07T23:54:09;87.95;;;52.97;;
44434;SDS011;30138;20.964;105.830;2023-03-07T23:59:17;77.72;;;52.30;;
